Bosque, New Mexico
Current Conditions -  °F | °C
As of 11:15 AM on Thursday 29 Jan 2015 (Local Time) from KE80 Reporting Station
Clear Clear  
Wind Chill: 52°   Ceiling: Unl
Heat Index: 52°   Visibility: 10mi
Dew Point: 31°   Wind: 9mph
Humidity: 44%   Direction: 280°W
Pressure: 30.4"   Gusts: NA
Location:  34.56°N, 106.79°W
Report Text: KE80 291815Z AUTO 28008KT 10SM CLR 11/M01 A3040 RMK AO2 T01131007
Loading
Personal Weather Stations






























Interactive Weather Map New forecast layout! Learn more

10-Day Weather Forecast

Advertisements
Track Severe Weather on mobile